JAL218 RJBD-RJTT
Flight info
| Callsign | JAL218 |
|---|---|
| Flight time | 0h 50m |
| Altitude | 25000 |
| Route | KEC Y43 MENUR Y21 AKSEL |
| Aircraft | B738/M-SDE2E3FGHIRWXY/LB1 |
Departure
| Time | 2026-04-16 13:14 |
|---|---|
| Airport | Nanki Shirahama Airport (RJBD) |
Arrival
| Time | 2026-04-16 14:05 |
|---|---|
| Airport | Tokyo Haneda International Airport (RJTT) |
| Time | Latitude | Longitude | Altitude | Speed | Heading |
|---|---|---|---|---|---|
| 2026-04-16 12:50 | 33.66276 | 135.36094 | 297 ft | 0 kts | 231° |
| 2026-04-16 13:04 | 33.66277 | 135.36096 | 297 ft | 2 kts | 231° |
| 2026-04-16 13:05 | 33.66290 | 135.36121 | 299 ft | 4 kts | 261° |
| 2026-04-16 13:05 | 33.66286 | 135.36148 | 297 ft | 3 kts | 316° |
| 2026-04-16 13:05 | 33.66283 | 135.36151 | 297 ft | 1 kts | 319° |
| 2026-04-16 13:09 | 33.66288 | 135.36147 | 297 ft | 3 kts | 334° |
| 2026-04-16 13:09 | 33.66315 | 135.36156 | 297 ft | 5 kts | 32° |
| 2026-04-16 13:09 | 33.66338 | 135.36183 | 296 ft | 5 kts | 48° |
| 2026-04-16 13:09 | 33.66363 | 135.36216 | 309 ft | 5 kts | 48° |
| 2026-04-16 13:10 | 33.66388 | 135.36251 | 299 ft | 6 kts | 48° |
| 2026-04-16 13:10 | 33.66427 | 135.36254 | 302 ft | 6 kts | 337° |
| 2026-04-16 13:10 | 33.66462 | 135.36226 | 302 ft | 6 kts | 322° |
| 2026-04-16 13:10 | 33.66495 | 135.36196 | 301 ft | 6 kts | 322° |
| 2026-04-16 13:11 | 33.66526 | 135.36165 | 302 ft | 6 kts | 321° |
| 2026-04-16 13:11 | 33.66563 | 135.36129 | 302 ft | 8 kts | 321° |
| 2026-04-16 13:11 | 33.66619 | 135.36075 | 303 ft | 12 kts | 321° |
| 2026-04-16 13:11 | 33.66695 | 135.36001 | 304 ft | 16 kts | 321° |
| 2026-04-16 13:12 | 33.66791 | 135.35908 | 304 ft | 20 kts | 321° |
| 2026-04-16 13:12 | 33.66866 | 135.35799 | 302 ft | 13 kts | 299° |
| 2026-04-16 13:12 | 33.66904 | 135.35774 | 304 ft | 4 kts | 38° |
| 2026-04-16 13:12 | 33.66894 | 135.35806 | 303 ft | 5 kts | 141° |
| 2026-04-16 13:13 | 33.66891 | 135.35809 | 302 ft | 0 kts | 141° |
| 2026-04-16 13:14 | 33.66774 | 135.35924 | 304 ft | 60 kts | 141° |
| 2026-04-16 13:14 | 33.66222 | 135.36459 | 297 ft | 140 kts | 141° |
| 2026-04-16 13:14 | 33.65315 | 135.37290 | 676 ft | 175 kts | 143° |
| 2026-04-16 13:14 | 33.64339 | 135.38208 | 1657 ft | 180 kts | 141° |
| 2026-04-16 13:15 | 33.63413 | 135.39217 | 2766 ft | 181 kts | 128° |
| 2026-04-16 13:15 | 33.62774 | 135.40508 | 3863 ft | 180 kts | 118° |
| 2026-04-16 13:15 | 33.62165 | 135.41877 | 4499 ft | 198 kts | 117° |
| 2026-04-16 13:15 | 33.61481 | 135.43415 | 4703 ft | 220 kts | 117° |
| 2026-04-16 13:16 | 33.60738 | 135.45074 | 5154 ft | 229 kts | 117° |
| 2026-04-16 13:16 | 33.59972 | 135.46764 | 5823 ft | 231 kts | 116° |
| 2026-04-16 13:16 | 33.59201 | 135.48457 | 6428 ft | 236 kts | 116° |
| 2026-04-16 13:16 | 33.58371 | 135.50270 | 6695 ft | 257 kts | 116° |
| 2026-04-16 13:17 | 33.57492 | 135.52176 | 7286 ft | 265 kts | 116° |
| 2026-04-16 13:17 | 33.56594 | 135.54116 | 8036 ft | 267 kts | 116° |
| 2026-04-16 13:17 | 33.55684 | 135.56079 | 8701 ft | 272 kts | 115° |
| 2026-04-16 13:17 | 33.54759 | 135.58070 | 9411 ft | 275 kts | 115° |
| 2026-04-16 13:18 | 33.53818 | 135.60090 | 10108 ft | 280 kts | 115° |
| 2026-04-16 13:18 | 33.52844 | 135.62191 | 10390 ft | 299 kts | 115° |
| 2026-04-16 13:18 | 33.51791 | 135.64453 | 10553 ft | 321 kts | 116° |
| 2026-04-16 13:18 | 33.50671 | 135.66857 | 10704 ft | 341 kts | 116° |
| 2026-04-16 13:19 | 33.49482 | 135.69403 | 10899 ft | 358 kts | 116° |
| 2026-04-16 13:19 | 33.48251 | 135.72035 | 11337 ft | 366 kts | 116° |
| 2026-04-16 13:19 | 33.46993 | 135.74718 | 11849 ft | 372 kts | 116° |
| 2026-04-16 13:19 | 33.45779 | 135.77460 | 12382 ft | 374 kts | 108° |
| 2026-04-16 13:20 | 33.45238 | 135.80483 | 12943 ft | 372 kts | 90° |
| 2026-04-16 13:20 | 33.45507 | 135.83551 | 13519 ft | 372 kts | 76° |
| 2026-04-16 13:20 | 33.46089 | 135.86592 | 14038 ft | 377 kts | 74° |
| 2026-04-16 13:20 | 33.46718 | 135.89663 | 14496 ft | 382 kts | 73° |
| 2026-04-16 13:21 | 33.47363 | 135.92777 | 14974 ft | 388 kts | 73° |
| 2026-04-16 13:21 | 33.48008 | 135.95934 | 15466 ft | 393 kts | 73° |
| 2026-04-16 13:21 | 33.48645 | 135.99097 | 15937 ft | 399 kts | 74° |
| 2026-04-16 13:21 | 33.49300 | 136.02397 | 16406 ft | 404 kts | 74° |
| 2026-04-16 13:22 | 33.49947 | 136.05691 | 16879 ft | 409 kts | 74° |
| 2026-04-16 13:22 | 33.50591 | 136.08991 | 17337 ft | 415 kts | 74° |
| 2026-04-16 13:22 | 33.51248 | 136.12373 | 17782 ft | 420 kts | 74° |
| 2026-04-16 13:22 | 33.51912 | 136.15804 | 18230 ft | 425 kts | 74° |
| 2026-04-16 13:23 | 33.52582 | 136.19267 | 18641 ft | 430 kts | 74° |
| 2026-04-16 13:23 | 33.53258 | 136.22773 | 19039 ft | 434 kts | 73° |
| 2026-04-16 13:23 | 33.53940 | 136.26312 | 19434 ft | 438 kts | 73° |
| 2026-04-16 13:23 | 33.54629 | 136.29888 | 19833 ft | 442 kts | 73° |
| 2026-04-16 13:24 | 33.55321 | 136.33492 | 20233 ft | 446 kts | 73° |
| 2026-04-16 13:24 | 33.56020 | 136.37136 | 20623 ft | 450 kts | 73° |
| 2026-04-16 13:24 | 33.56725 | 136.40816 | 21016 ft | 455 kts | 73° |
| 2026-04-16 13:24 | 33.57435 | 136.44528 | 21391 ft | 459 kts | 73° |
| 2026-04-16 13:25 | 33.58151 | 136.48277 | 21759 ft | 463 kts | 73° |
| 2026-04-16 13:25 | 33.58872 | 136.52061 | 22133 ft | 467 kts | 73° |
| 2026-04-16 13:25 | 33.59597 | 136.55877 | 22484 ft | 472 kts | 73° |
| 2026-04-16 13:25 | 33.60328 | 136.59727 | 22832 ft | 476 kts | 73° |
| 2026-04-16 13:26 | 33.61064 | 136.63615 | 23178 ft | 480 kts | 73° |
| 2026-04-16 13:26 | 33.61805 | 136.67534 | 23522 ft | 484 kts | 73° |
| 2026-04-16 13:26 | 33.62551 | 136.71481 | 23818 ft | 487 kts | 73° |
| 2026-04-16 13:26 | 33.63302 | 136.75464 | 24118 ft | 490 kts | 73° |
| 2026-04-16 13:27 | 33.64058 | 136.79465 | 24429 ft | 493 kts | 73° |
| 2026-04-16 13:27 | 33.64822 | 136.83482 | 24746 ft | 495 kts | 73° |
| 2026-04-16 13:27 | 33.65592 | 136.87521 | 25039 ft | 497 kts | 73° |
| 2026-04-16 13:27 | 33.66363 | 136.91577 | 25139 ft | 501 kts | 73° |
| 2026-04-16 13:28 | 33.67137 | 136.95660 | 25140 ft | 501 kts | 73° |
| 2026-04-16 13:28 | 33.67904 | 136.99726 | 25142 ft | 499 kts | 73° |
| 2026-04-16 13:28 | 33.68669 | 137.03788 | 25147 ft | 499 kts | 73° |
| 2026-04-16 13:28 | 33.69434 | 137.07851 | 25152 ft | 499 kts | 73° |
| 2026-04-16 13:29 | 33.70198 | 137.11916 | 25150 ft | 499 kts | 73° |
| 2026-04-16 13:29 | 33.70955 | 137.15985 | 25151 ft | 500 kts | 73° |
| 2026-04-16 13:29 | 33.71707 | 137.20063 | 25151 ft | 500 kts | 73° |
| 2026-04-16 13:29 | 33.72455 | 137.24137 | 25149 ft | 500 kts | 73° |
| 2026-04-16 13:30 | 33.73202 | 137.28216 | 25147 ft | 500 kts | 73° |
| 2026-04-16 13:30 | 33.73949 | 137.32295 | 25146 ft | 500 kts | 73° |
| 2026-04-16 13:30 | 33.74695 | 137.36379 | 25149 ft | 500 kts | 73° |
| 2026-04-16 13:30 | 33.75439 | 137.40454 | 25152 ft | 500 kts | 73° |
| 2026-04-16 13:31 | 33.76184 | 137.44540 | 25151 ft | 500 kts | 73° |
| 2026-04-16 13:31 | 33.76926 | 137.48619 | 25152 ft | 500 kts | 73° |
| 2026-04-16 13:31 | 33.77667 | 137.52702 | 25151 ft | 500 kts | 73° |
| 2026-04-16 13:31 | 33.78406 | 137.56781 | 25154 ft | 500 kts | 73° |
| 2026-04-16 13:32 | 33.79146 | 137.60866 | 25154 ft | 500 kts | 73° |
| 2026-04-16 13:32 | 33.79635 | 137.63575 | 25154 ft | 500 kts | 73° |
| 2026-04-16 13:32 | 33.80373 | 137.67666 | 25153 ft | 501 kts | 73° |
| 2026-04-16 13:32 | 33.81111 | 137.71755 | 25149 ft | 501 kts | 73° |
| 2026-04-16 13:33 | 33.81853 | 137.75863 | 25157 ft | 505 kts | 73° |
| 2026-04-16 13:33 | 33.82601 | 137.80013 | 25162 ft | 511 kts | 73° |
| 2026-04-16 13:33 | 33.83608 | 137.85614 | 25158 ft | 512 kts | 73° |
| 2026-04-16 13:33 | 33.84101 | 137.88376 | 25145 ft | 508 kts | 73° |
| 2026-04-16 13:34 | 33.84822 | 137.92447 | 25133 ft | 487 kts | 73° |
| 2026-04-16 13:34 | 33.85737 | 137.97624 | 25135 ft | 473 kts | 72° |
| 2026-04-16 13:34 | 33.86201 | 138.00229 | 25143 ft | 470 kts | 72° |
| 2026-04-16 13:34 | 33.86889 | 138.04077 | 25159 ft | 471 kts | 72° |
| 2026-04-16 13:35 | 33.87577 | 138.07928 | 25161 ft | 472 kts | 72° |
| 2026-04-16 13:35 | 33.88263 | 138.11790 | 25160 ft | 472 kts | 72° |
| 2026-04-16 13:35 | 33.88947 | 138.15656 | 25157 ft | 472 kts | 72° |
| 2026-04-16 13:35 | 33.89639 | 138.19519 | 25155 ft | 471 kts | 70° |
| 2026-04-16 13:36 | 33.90653 | 138.23231 | 25145 ft | 463 kts | 59° |
| 2026-04-16 13:36 | 33.92053 | 138.26632 | 25162 ft | 458 kts | 56° |
| 2026-04-16 13:36 | 33.93538 | 138.30025 | 25153 ft | 458 kts | 55° |
| 2026-04-16 13:36 | 33.95032 | 138.33407 | 25152 ft | 458 kts | 55° |
| 2026-04-16 13:37 | 33.96519 | 138.36797 | 25155 ft | 458 kts | 55° |
| 2026-04-16 13:37 | 33.97993 | 138.40197 | 25153 ft | 458 kts | 56° |
| 2026-04-16 13:37 | 33.99456 | 138.43606 | 25154 ft | 458 kts | 56° |
| 2026-04-16 13:37 | 34.00914 | 138.47028 | 25164 ft | 463 kts | 56° |
| 2026-04-16 13:38 | 34.02414 | 138.50546 | 24812 ft | 481 kts | 56° |
| 2026-04-16 13:38 | 34.03963 | 138.54187 | 24529 ft | 494 kts | 57° |
| 2026-04-16 13:38 | 34.05534 | 138.57902 | 24238 ft | 498 kts | 57° |
| 2026-04-16 13:38 | 34.07096 | 138.61617 | 23937 ft | 495 kts | 57° |
| 2026-04-16 13:39 | 34.08648 | 138.65317 | 23641 ft | 494 kts | 57° |
| 2026-04-16 13:39 | 34.10195 | 138.69001 | 23290 ft | 492 kts | 57° |
| 2026-04-16 13:39 | 34.11740 | 138.72679 | 22949 ft | 490 kts | 57° |
| 2026-04-16 13:39 | 34.13272 | 138.76327 | 22596 ft | 481 kts | 57° |
| 2026-04-16 13:40 | 34.14755 | 138.79870 | 22257 ft | 465 kts | 57° |
| 2026-04-16 13:40 | 34.16197 | 138.83315 | 21926 ft | 456 kts | 57° |
| 2026-04-16 13:40 | 34.17623 | 138.86714 | 21601 ft | 451 kts | 57° |
| 2026-04-16 13:40 | 34.19036 | 138.90077 | 21277 ft | 448 kts | 57° |
| 2026-04-16 13:41 | 34.20447 | 138.93438 | 21198 ft | 449 kts | 57° |
| 2026-04-16 13:41 | 34.21854 | 138.96796 | 21167 ft | 447 kts | 57° |
| 2026-04-16 13:41 | 34.23231 | 139.00100 | 21154 ft | 431 kts | 57° |
| 2026-04-16 13:41 | 34.24549 | 139.03273 | 21157 ft | 415 kts | 57° |
| 2026-04-16 13:42 | 34.25845 | 139.06376 | 21165 ft | 415 kts | 56° |
| 2026-04-16 13:42 | 34.27156 | 139.09503 | 21181 ft | 420 kts | 56° |
| 2026-04-16 13:42 | 34.28613 | 139.12551 | 21160 ft | 414 kts | 51° |
| 2026-04-16 13:42 | 34.30147 | 139.15435 | 20807 ft | 403 kts | 50° |
| 2026-04-16 13:43 | 34.31698 | 139.18244 | 20260 ft | 400 kts | 49° |
| 2026-04-16 13:43 | 34.33250 | 139.21034 | 19731 ft | 399 kts | 50° |
| 2026-04-16 13:43 | 34.34767 | 139.23787 | 19566 ft | 386 kts | 50° |
| 2026-04-16 13:43 | 34.36217 | 139.26454 | 19484 ft | 373 kts | 50° |
| 2026-04-16 13:44 | 34.37620 | 139.29049 | 19229 ft | 364 kts | 50° |
| 2026-04-16 13:44 | 34.38991 | 139.31593 | 18742 ft | 359 kts | 50° |
| 2026-04-16 13:44 | 34.40349 | 139.34115 | 18169 ft | 357 kts | 50° |
| 2026-04-16 13:44 | 34.41694 | 139.36618 | 17652 ft | 352 kts | 51° |
| 2026-04-16 13:45 | 34.43023 | 139.39097 | 17245 ft | 349 kts | 51° |
| 2026-04-16 13:45 | 34.44332 | 139.41542 | 16896 ft | 343 kts | 51° |
| 2026-04-16 13:45 | 34.45616 | 139.43945 | 16439 ft | 337 kts | 51° |
| 2026-04-16 13:45 | 34.46884 | 139.46319 | 15896 ft | 334 kts | 51° |
| 2026-04-16 13:46 | 34.48140 | 139.48669 | 15403 ft | 330 kts | 51° |
| 2026-04-16 13:46 | 34.49376 | 139.50987 | 14938 ft | 325 kts | 52° |
| 2026-04-16 13:46 | 34.50595 | 139.53272 | 14466 ft | 321 kts | 52° |
| 2026-04-16 13:46 | 34.51796 | 139.55526 | 14012 ft | 316 kts | 52° |
| 2026-04-16 13:47 | 34.52981 | 139.57751 | 13499 ft | 312 kts | 52° |
| 2026-04-16 13:47 | 34.54151 | 139.59949 | 12977 ft | 308 kts | 52° |
| 2026-04-16 13:47 | 34.55306 | 139.62121 | 12468 ft | 305 kts | 53° |
| 2026-04-16 13:47 | 34.56456 | 139.64281 | 12058 ft | 303 kts | 53° |
| 2026-04-16 13:48 | 34.57648 | 139.66377 | 11990 ft | 302 kts | 45° |
| 2026-04-16 13:48 | 34.59247 | 139.67953 | 11896 ft | 300 kts | 30° |
| 2026-04-16 13:48 | 34.61122 | 139.69043 | 11634 ft | 297 kts | 22° |
| 2026-04-16 13:48 | 34.63038 | 139.69923 | 11387 ft | 291 kts | 21° |
| 2026-04-16 13:49 | 34.64920 | 139.70751 | 11137 ft | 284 kts | 21° |
| 2026-04-16 13:49 | 34.66763 | 139.71559 | 10893 ft | 278 kts | 21° |
| 2026-04-16 13:49 | 34.68553 | 139.72349 | 10723 ft | 270 kts | 21° |
| 2026-04-16 13:49 | 34.70291 | 139.73121 | 10570 ft | 261 kts | 21° |
| 2026-04-16 13:50 | 34.71971 | 139.73870 | 10423 ft | 254 kts | 22° |
| 2026-04-16 13:50 | 34.73602 | 139.74602 | 10275 ft | 246 kts | 22° |
| 2026-04-16 13:50 | 34.75191 | 139.75316 | 10090 ft | 242 kts | 22° |
| 2026-04-16 13:50 | 34.76768 | 139.76028 | 9829 ft | 241 kts | 22° |
| 2026-04-16 13:51 | 34.78332 | 139.76735 | 9567 ft | 239 kts | 22° |
| 2026-04-16 13:51 | 34.79887 | 139.77439 | 9311 ft | 238 kts | 22° |
| 2026-04-16 13:51 | 34.81437 | 139.78141 | 9052 ft | 237 kts | 22° |
| 2026-04-16 13:51 | 34.82978 | 139.78839 | 8794 ft | 236 kts | 22° |
| 2026-04-16 13:52 | 34.84516 | 139.79536 | 8542 ft | 235 kts | 22° |
| 2026-04-16 13:52 | 34.86045 | 139.80230 | 8298 ft | 234 kts | 22° |
| 2026-04-16 13:52 | 34.87574 | 139.80924 | 8066 ft | 234 kts | 22° |
| 2026-04-16 13:52 | 34.89106 | 139.81620 | 8010 ft | 237 kts | 22° |
| 2026-04-16 13:53 | 34.90652 | 139.82322 | 7969 ft | 237 kts | 22° |
| 2026-04-16 13:53 | 34.92190 | 139.83022 | 7964 ft | 236 kts | 22° |
| 2026-04-16 13:53 | 34.93727 | 139.83720 | 7969 ft | 237 kts | 22° |
| 2026-04-16 13:53 | 34.95270 | 139.84423 | 7960 ft | 236 kts | 22° |
| 2026-04-16 13:54 | 34.96809 | 139.85123 | 7960 ft | 236 kts | 22° |
| 2026-04-16 13:54 | 34.98364 | 139.85832 | 7808 ft | 245 kts | 22° |
| 2026-04-16 13:54 | 34.99988 | 139.86572 | 7431 ft | 251 kts | 22° |
| 2026-04-16 13:54 | 35.01617 | 139.87314 | 7186 ft | 246 kts | 22° |
| 2026-04-16 13:55 | 35.03198 | 139.88034 | 6976 ft | 240 kts | 22° |
| 2026-04-16 13:55 | 35.04749 | 139.88740 | 6770 ft | 235 kts | 23° |
| 2026-04-16 13:55 | 35.06271 | 139.89433 | 6564 ft | 232 kts | 23° |
| 2026-04-16 13:55 | 35.07778 | 139.90122 | 6336 ft | 231 kts | 22° |
| 2026-04-16 13:56 | 35.09278 | 139.90808 | 6103 ft | 229 kts | 22° |
| 2026-04-16 13:56 | 35.10762 | 139.91487 | 5827 ft | 226 kts | 21° |
| 2026-04-16 13:56 | 35.12222 | 139.92154 | 5633 ft | 222 kts | 21° |
| 2026-04-16 13:56 | 35.13661 | 139.92812 | 5405 ft | 219 kts | 21° |
| 2026-04-16 13:57 | 35.15090 | 139.93466 | 5173 ft | 219 kts | 20° |
| 2026-04-16 13:57 | 35.16512 | 139.94116 | 5026 ft | 217 kts | 20° |
| 2026-04-16 13:57 | 35.17920 | 139.94761 | 5006 ft | 215 kts | 20° |
| 2026-04-16 13:58 | 35.20720 | 139.96042 | 4978 ft | 215 kts | 19° |
| 2026-04-16 13:58 | 35.22116 | 139.96682 | 4973 ft | 213 kts | 19° |
| 2026-04-16 13:58 | 35.23528 | 139.97329 | 4988 ft | 221 kts | 19° |
| 2026-04-16 13:58 | 35.25017 | 139.97770 | 4974 ft | 222 kts | 357° |
| 2026-04-16 13:59 | 35.26491 | 139.97231 | 4999 ft | 229 kts | 341° |
| 2026-04-16 13:59 | 35.27989 | 139.96520 | 4990 ft | 231 kts | 342° |
| 2026-04-16 13:59 | 35.29467 | 139.95712 | 4986 ft | 234 kts | 337° |
| 2026-04-16 13:59 | 35.30896 | 139.94748 | 4982 ft | 235 kts | 334° |
| 2026-04-16 14:00 | 35.32322 | 139.93729 | 4743 ft | 242 kts | 334° |
| 2026-04-16 14:00 | 35.33779 | 139.92687 | 4458 ft | 243 kts | 334° |
| 2026-04-16 14:00 | 35.35232 | 139.91650 | 4143 ft | 239 kts | 334° |
| 2026-04-16 14:00 | 35.36655 | 139.90638 | 3832 ft | 235 kts | 335° |
| 2026-04-16 14:01 | 35.38045 | 139.89651 | 3531 ft | 225 kts | 335° |
| 2026-04-16 14:01 | 35.39339 | 139.88730 | 3228 ft | 212 kts | 336° |
| 2026-04-16 14:01 | 35.40566 | 139.87857 | 2978 ft | 196 kts | 337° |
| 2026-04-16 14:01 | 35.41705 | 139.87049 | 2714 ft | 183 kts | 339° |
| 2026-04-16 14:02 | 35.42673 | 139.86362 | 2495 ft | 174 kts | 339° |
| 2026-04-16 14:02 | 35.43699 | 139.85635 | 2281 ft | 168 kts | 339° |
| 2026-04-16 14:02 | 35.44708 | 139.84921 | 2073 ft | 168 kts | 340° |
| 2026-04-16 14:02 | 35.45716 | 139.84207 | 1838 ft | 166 kts | 339° |
| 2026-04-16 14:03 | 35.46709 | 139.83503 | 1612 ft | 164 kts | 338° |
| 2026-04-16 14:03 | 35.47690 | 139.82806 | 1403 ft | 163 kts | 337° |
| 2026-04-16 14:03 | 35.48684 | 139.82101 | 1204 ft | 166 kts | 338° |
| 2026-04-16 14:03 | 35.49657 | 139.81408 | 963 ft | 155 kts | 338° |
| 2026-04-16 14:04 | 35.50558 | 139.80769 | 768 ft | 147 kts | 338° |
| 2026-04-16 14:04 | 35.51443 | 139.80142 | 591 ft | 148 kts | 336° |
| 2026-04-16 14:04 | 35.52338 | 139.79507 | 409 ft | 149 kts | 336° |
| 2026-04-16 14:04 | 35.53224 | 139.78872 | 198 ft | 146 kts | 336° |
| 2026-04-16 14:05 | 35.54094 | 139.78260 | 27 ft | 140 kts | 332° |
| 2026-04-16 14:05 | 35.54812 | 139.77756 | 21 ft | 97 kts | 330° |
| 2026-04-16 14:05 | 35.55156 | 139.77512 | 22 ft | 25 kts | 329° |
| 2026-04-16 14:05 | 35.55301 | 139.77415 | 22 ft | 25 kts | 334° |
| 2026-04-16 14:06 | 35.55464 | 139.77361 | 21 ft | 24 kts | 352° |
| 2026-04-16 14:06 | 35.55536 | 139.77357 | 20 ft | 6 kts | 10° |
| 2026-04-16 14:06 | 35.55569 | 139.77380 | 21 ft | 5 kts | 49° |
| 2026-04-16 14:06 | 35.55592 | 139.77417 | 20 ft | 5 kts | 59° |
| 2026-04-16 14:07 | 35.55610 | 139.77457 | 21 ft | 5 kts | 62° |
| 2026-04-16 14:07 | 35.55627 | 139.77502 | 22 ft | 6 kts | 75° |
| 2026-04-16 14:07 | 35.55618 | 139.77552 | 21 ft | 6 kts | 125° |
| 2026-04-16 14:07 | 35.55583 | 139.77581 | 21 ft | 6 kts | 151° |
| 2026-04-16 14:08 | 35.55548 | 139.77606 | 23 ft | 6 kts | 146° |
| 2026-04-16 14:08 | 35.55541 | 139.77652 | 20 ft | 6 kts | 62° |
| 2026-04-16 14:08 | 35.55563 | 139.77700 | 21 ft | 7 kts | 60° |
| 2026-04-16 14:08 | 35.55571 | 139.77717 | 22 ft | 0 kts | 60° |